Time;durP1;ratioP1;P1;durP2;ratioP2;P2;SDS_P1;SDS_P2;PMS_P1;PMS_P2;Temp;Humidity;BMP_temperature;BMP_pressure;BME280_temperature;BME280_humidity;BME280_pressure;Samples;Min_cycle;Max_cycle;Signal;HPM_P1;HPM_P2
2023/08/07 00:00:54;;;;;;;;;;;;;;;19.68;61.88;99234.69;5080239;28;20012;-73
2023/08/07 00:03:19;;;;;;;;;;;;;;;19.59;63.81;99235.97;5084234;28;19920;-73
2023/08/07 00:05:46;;;;;;;;;;;;;;;19.57;64.28;99238.84;5081880;28;19920;-72
2023/08/07 00:08:11;;;;;;;;;;;;;;;19.38;65.60;99234.28;5083939;28;19946;-73
2023/08/07 00:10:36;;;;;;;;;;;;;;;19.34;65.82;99229.56;5082030;28;19927;-73
2023/08/07 00:13:01;;;;;;;;;;;;;;;19.29;66.90;99235.53;5079943;28;19920;-73
2023/08/07 00:15:27;;;;;;;;;;;;;;;19.19;68.05;99227.13;5078981;28;19920;-73
2023/08/07 00:17:52;;;;;;;;;;;;;;;19.20;66.98;99231.44;5081547;28;20018;-72
2023/08/07 00:20:17;;;;;;;;;;;;;;;19.10;67.92;99226.50;5080971;28;19920;-73
2023/08/07 00:22:43;;;;;;;;;;;;;;;19.06;67.06;99235.97;5084241;28;19928;-72
2023/08/07 00:25:08;;;;;;;;;;;;;;;18.97;67.28;99226.47;5079973;28;19924;-73
2023/08/07 00:27:33;;;;;;;;;;;;;;;18.96;67.09;99232.06;5082930;28;19926;-73
2023/08/07 00:29:59;;;;;;;;;;;;;;;18.89;67.17;99229.38;5083640;28;20329;-72
2023/08/07 00:32:24;;;;;;;;;;;;;;;18.80;68.17;99230.56;5081586;28;19920;-73
2023/08/07 00:34:49;;;;;;;;;;;;;;;18.80;68.07;99226.03;5078617;28;19928;-72
2023/08/07 00:37:15;;;;;;;;;;;;;;;18.74;67.75;99226.03;5081801;28;19916;-72
2023/08/07 00:39:40;;;;;;;;;;;;;;;18.70;68.61;99222.13;5080141;28;20430;-73
2023/08/07 00:42:05;;;;;;;;;;;;;;;18.61;68.68;99216.16;5081477;28;19926;-73
2023/08/07 00:44:31;;;;;;;;;;;;;;;18.68;68.66;99221.50;5079328;28;19924;-73
2023/08/07 00:46:56;;;;;;;;;;;;;;;18.61;68.85;99218.00;5078368;28;19931;-73
2023/08/07 00:49:22;;;;;;;;;;;;;;;18.54;69.63;99219.81;5083498;28;20346;-72
2023/08/07 00:51:47;;;;;;;;;;;;;;;18.54;69.54;99222.47;5083048;28;19965;-73
2023/08/07 00:54:15;;;;;;;;;;;;;;;18.40;71.07;99225.09;5077598;28;20471;-73
2023/08/07 00:56:40;;;;;;;;;;;;;;;18.26;72.58;99217.25;5081561;28;19931;-72
2023/08/07 00:59:06;;;;;;;;;;;;;;;18.31;72.48;99220.16;5078356;28;19924;-74
2023/08/07 01:01:32;;;;;;;;;;;;;;;18.09;73.38;99222.09;5079451;28;19924;-72
2023/08/07 01:03:57;;;;;;;;;;;;;;;18.11;73.07;99229.94;5078654;28;19931;-71
2023/08/07 01:06:22;;;;;;;;;;;;;;;17.99;72.90;99232.34;5083175;28;19924;-72
2023/08/07 01:08:48;;;;;;;;;;;;;;;17.93;73.81;99233.13;5081507;28;19926;-72
2023/08/07 01:11:22;;;;;;;;;;;;;;;17.74;74.41;99236.50;5078505;28;19928;-72
2023/08/07 01:13:56;;;;;;;;;;;;;;;17.69;74.45;99241.59;5077717;28;19921;-72
2023/08/07 01:16:27;;;;;;;;;;;;;;;17.54;75.81;99239.84;5079555;28;19924;-72
2023/08/07 01:18:53;;;;;;;;;;;;;;;17.53;76.47;99246.22;5079242;28;19927;-72
2023/08/07 01:21:19;;;;;;;;;;;;;;;17.60;75.87;99248.97;5075087;28;19924;-72
2023/08/07 01:23:45;;;;;;;;;;;;;;;17.58;76.19;99251.78;5084028;28;19973;-71
2023/08/07 01:26:11;;;;;;;;;;;;;;;17.61;76.47;99249.78;5061475;28;19924;-72
2023/08/07 01:28:38;;;;;;;;;;;;;;;17.62;76.38;99262.06;5084060;28;20583;-72
2023/08/07 01:31:08;;;;;;;;;;;;;;;17.27;78.92;99254.00;5081273;28;19923;-72
2023/08/07 01:33:44;;;;;;;;;;;;;;;17.27;79.75;99254.00;5079539;28;20423;-72
2023/08/07 01:36:10;;;;;;;;;;;;;;;17.25;79.45;99253.38;5080142;28;19920;-71
2023/08/07 01:38:36;;;;;;;;;;;;;;;17.26;80.56;99260.34;5079615;28;19927;-72
2023/08/07 01:41:02;;;;;;;;;;;;;;;17.29;81.04;99265.31;5081585;28;19921;-72
2023/08/07 01:43:28;;;;;;;;;;;;;;;17.36;79.80;99260.84;5081749;28;19920;-72
2023/08/07 01:45:53;;;;;;;;;;;;;;;17.29;79.93;99257.31;5080163;28;19927;-72
2023/08/07 01:48:19;;;;;;;;;;;;;;;17.23;80.12;99266.06;5077955;28;19978;-73
2023/08/07 01:50:44;;;;;;;;;;;;;;;17.23;80.97;99271.41;5080026;28;19921;-72
2023/08/07 01:53:10;;;;;;;;;;;;;;;17.06;82.13;99272.69;5079384;28;19927;-72
2023/08/07 01:55:35;;;;;;;;;;;;;;;16.97;83.49;99263.97;5079242;28;20304;-72
2023/08/07 01:58:00;;;;;;;;;;;;;;;16.86;83.72;99258.34;5078254;28;19962;-73
2023/08/07 02:00:26;;;;;;;;;;;;;;;16.82;83.12;99259.75;5078871;28;19925;-72
2023/08/07 02:02:51;;;;;;;;;;;;;;;16.75;82.80;99265.81;5081956;28;19924;-72
2023/08/07 02:05:17;;;;;;;;;;;;;;;16.49;84.97;99260.19;5079431;28;19921;-72
2023/08/07 02:07:42;;;;;;;;;;;;;;;16.35;85.55;99263.69;5080523;28;19997;-73
2023/08/07 02:10:08;;;;;;;;;;;;;;;16.24;85.97;99267.66;5061724;28;20007;-73
2023/08/07 02:12:35;;;;;;;;;;;;;;;16.18;85.93;99272.91;5084266;28;19920;-73
2023/08/07 02:15:00;;;;;;;;;;;;;;;15.87;86.70;99265.94;5101302;28;19927;-73
2023/08/07 02:17:27;;;;;;;;;;;;;;;15.72;87.60;99267.78;5065348;28;19928;-72
2023/08/07 02:19:52;;;;;;;;;;;;;;;15.34;89.00;99258.16;5085152;28;19921;-72
2023/08/07 02:22:18;;;;;;;;;;;;;;;15.37;87.62;99263.13;5086312;28;20328;-72
2023/08/07 02:24:43;;;;;;;;;;;;;;;15.38;88.49;99260.25;5081775;28;19977;-73
2023/08/07 02:27:08;;;;;;;;;;;;;;;15.35;88.75;99265.13;5085414;28;19920;-72
2023/08/07 02:29:35;;;;;;;;;;;;;;;15.49;87.97;99269.66;5099928;28;20285;-72
2023/08/07 02:32:03;;;;;;;;;;;;;;;15.31;87.73;99269.16;5082726;28;19936;-72
2023/08/07 02:34:29;;;;;;;;;;;;;;;15.28;88.91;99269.50;5085385;28;19947;-72
2023/08/07 02:36:57;;;;;;;;;;;;;;;15.19;89.51;99270.59;5064844;28;19954;-72
2023/08/07 02:39:22;;;;;;;;;;;;;;;15.09;91.34;99268.16;5082449;28;19924;-71
2023/08/07 02:41:47;;;;;;;;;;;;;;;15.12;91.56;99266.00;5088743;28;20383;-72
2023/08/07 02:44:13;;;;;;;;;;;;;;;15.28;90.36;99270.34;5082763;28;19935;-72
2023/08/07 02:46:38;;;;;;;;;;;;;;;15.39;90.84;99269.91;5083516;28;20019;-72
2023/08/07 02:49:04;;;;;;;;;;;;;;;15.42;91.60;99271.38;5080075;28;20011;-72
2023/08/07 02:51:30;;;;;;;;;;;;;;;15.29;93.58;99268.50;5081679;28;19921;-71
2023/08/07 02:53:56;;;;;;;;;;;;;;;15.38;93.43;99270.06;5066242;28;20422;-72
2023/08/07 02:56:21;;;;;;;;;;;;;;;15.45;92.42;99276.31;5082219;28;19931;-72
2023/08/07 02:58:46;;;;;;;;;;;;;;;15.25;94.11;99285.81;5082200;28;19926;-72
2023/08/07 03:01:12;;;;;;;;;;;;;;;15.16;94.59;99280.56;5083687;28;19920;-72
2023/08/07 03:03:38;;;;;;;;;;;;;;;15.02;96.34;99276.00;5083600;28;20397;-72
2023/08/07 03:06:03;;;;;;;;;;;;;;;15.01;95.79;99279.69;5064835;28;20010;-72
2023/08/07 03:08:29;;;;;;;;;;;;;;;14.78;97.30;99278.88;5082359;28;19920;-72
2023/08/07 03:10:55;;;;;;;;;;;;;;;14.43;100.00;99279.41;5081945;28;19963;-72
2023/08/07 03:13:23;;;;;;;;;;;;;;;14.34;100.00;99284.72;5065811;28;19997;-72
2023/08/07 03:15:50;;;;;;;;;;;;;;;14.25;100.00;99283.13;5084920;28;20361;-72
2023/08/07 03:18:15;;;;;;;;;;;;;;;14.14;100.00;99286.13;5081368;28;19928;-71
2023/08/07 03:20:41;;;;;;;;;;;;;;;14.30;100.00;99286.06;5083362;28;19920;-71
2023/08/07 03:23:06;;;;;;;;;;;;;;;14.34;99.91;99292.69;5083011;28;19920;-72
2023/08/07 03:25:32;;;;;;;;;;;;;;;14.44;99.06;99292.50;5077644;28;19920;-72
2023/08/07 03:27:57;;;;;;;;;;;;;;;14.55;97.96;99293.94;5080953;28;19920;-72
2023/08/07 03:30:22;;;;;;;;;;;;;;;14.62;98.05;99297.53;5080925;28;20396;-72
2023/08/07 03:32:48;;;;;;;;;;;;;;;14.52;99.04;99295.13;5081466;28;19920;-73
2023/08/07 03:35:14;;;;;;;;;;;;;;;14.56;98.95;99306.19;5084141;28;19934;-71
2023/08/07 03:37:40;;;;;;;;;;;;;;;14.58;99.28;99306.88;5081223;28;20017;-72
2023/08/07 03:40:06;;;;;;;;;;;;;;;14.46;98.45;99305.59;5080511;28;20018;-71
2023/08/07 03:42:32;;;;;;;;;;;;;;;14.48;98.66;99314.22;5082196;28;20376;-71
2023/08/07 03:44:58;;;;;;;;;;;;;;;14.51;97.55;99304.06;5083113;28;19951;-71
2023/08/07 03:47:23;;;;;;;;;;;;;;;14.60;96.38;99310.19;5063942;28;19974;-71
2023/08/07 03:49:50;;;;;;;;;;;;;;;14.62;96.54;99316.13;5083140;28;19999;-73
2023/08/07 03:52:15;;;;;;;;;;;;;;;14.67;95.71;99319.09;5081235;28;20453;-71
2023/08/07 03:54:40;;;;;;;;;;;;;;;14.76;94.98;99328.69;5081196;28;20018;-70
2023/08/07 03:57:06;;;;;;;;;;;;;;;14.81;95.19;99330.81;5083910;28;19917;-71
2023/08/07 03:59:31;;;;;;;;;;;;;;;14.86;96.13;99339.91;5067973;28;19921;-71
2023/08/07 04:01:56;;;;;;;;;;;;;;;14.82;97.11;99333.28;5064587;28;19993;-71
2023/08/07 04:04:21;;;;;;;;;;;;;;;14.76;98.36;99334.00;5078418;28;19979;-73
2023/08/07 04:06:47;;;;;;;;;;;;;;;14.79;97.63;99328.31;5083538;28;20049;-72
2023/08/07 04:09:13;;;;;;;;;;;;;;;14.75;98.56;99337.63;5082825;28;19924;-72
2023/08/07 04:11:40;;;;;;;;;;;;;;;14.67;98.92;99338.50;5081170;28;19920;-71
2023/08/07 04:14:05;;;;;;;;;;;;;;;14.55;99.56;99342.53;5082174;28;19927;-71
2023/08/07 04:16:31;;;;;;;;;;;;;;;14.46;100.00;99340.09;5081797;28;19916;-70
2023/08/07 04:18:56;;;;;;;;;;;;;;;14.37;100.00;99343.78;5080736;28;19985;-72
2023/08/07 04:21:22;;;;;;;;;;;;;;;14.40;100.00;99346.94;5083478;28;19931;-71
2023/08/07 04:23:48;;;;;;;;;;;;;;;14.35;100.00;99344.78;5080332;28;19921;-72
2023/08/07 04:26:14;;;;;;;;;;;;;;;14.25;100.00;99343.31;5080526;28;19929;-72
2023/08/07 04:28:39;;;;;;;;;;;;;;;14.07;100.00;99348.84;5084109;28;19920;-71
2023/08/07 04:31:05;;;;;;;;;;;;;;;14.16;100.00;99353.13;5081003;28;19920;-71
2023/08/07 04:33:30;;;;;;;;;;;;;;;14.22;100.00;99352.44;5082326;28;19963;-71
2023/08/07 04:35:55;;;;;;;;;;;;;;;14.27;100.00;99350.09;5083186;28;19992;-71
2023/08/07 04:38:22;;;;;;;;;;;;;;;14.26;100.00;99359.06;5078613;28;20000;-73
2023/08/07 04:40:47;;;;;;;;;;;;;;;14.30;100.00;99363.03;5083454;28;19944;-71
2023/08/07 04:43:13;;;;;;;;;;;;;;;14.35;100.00;99358.03;5081243;28;20388;-73
2023/08/07 04:45:39;;;;;;;;;;;;;;;14.29;100.00;99357.91;5082267;28;19964;-72
2023/08/07 04:48:05;;;;;;;;;;;;;;;14.02;100.00;99356.47;5084493;28;19963;-72
2023/08/07 04:50:30;;;;;;;;;;;;;;;13.80;100.00;99359.84;5082227;28;19920;-71
2023/08/07 04:52:56;;;;;;;;;;;;;;;13.93;100.00;99362.81;5080324;28;19924;-72
2023/08/07 04:55:21;;;;;;;;;;;;;;;14.01;100.00;99365.44;5079836;28;19925;-72
2023/08/07 04:57:47;;;;;;;;;;;;;;;14.09;100.00;99354.78;5081443;28;20363;-71
2023/08/07 05:00:13;;;;;;;;;;;;;;;13.92;100.00;99356.66;5081811;28;19985;-71
2023/08/07 05:02:38;;;;;;;;;;;;;;;13.97;100.00;99363.28;5079868;28;19920;-72
2023/08/07 05:05:04;;;;;;;;;;;;;;;13.86;100.00;99361.81;5081314;28;20007;-72
2023/08/07 05:07:29;;;;;;;;;;;;;;;14.00;100.00;99362.97;5082004;28;20007;-72
2023/08/07 05:09:55;;;;;;;;;;;;;;;13.97;100.00;99358.81;5083139;28;20381;-71
2023/08/07 05:12:20;;;;;;;;;;;;;;;13.95;100.00;99355.50;5079277;28;20398;-72
2023/08/07 05:14:45;;;;;;;;;;;;;;;14.05;100.00;99361.44;5083264;28;19926;-72
2023/08/07 05:17:12;;;;;;;;;;;;;;;14.16;100.00;99366.41;5080965;28;19990;-72
2023/08/07 05:19:38;;;;;;;;;;;;;;;14.19;100.00;99368.72;5081108;28;20396;-72
2023/08/07 05:22:04;;;;;;;;;;;;;;;14.33;100.00;99365.34;5079202;28;19931;-72
2023/08/07 05:24:35;;;;;;;;;;;;;;;14.39;99.46;99378.97;5077039;28;19924;-72
2023/08/07 05:27:00;;;;;;;;;;;;;;;14.40;99.93;99370.81;5097550;28;20020;-71
2023/08/07 05:29:25;;;;;;;;;;;;;;;14.47;99.89;99370.97;5082270;28;20011;-70
2023/08/07 05:31:51;;;;;;;;;;;;;;;14.49;99.82;99371.63;5078279;28;20365;-72
2023/08/07 05:34:16;;;;;;;;;;;;;;;14.56;99.09;99375.22;5082164;28;20398;-72
2023/08/07 05:36:41;;;;;;;;;;;;;;;14.51;99.94;99369.63;5065454;28;19920;-71
2023/08/07 05:39:07;;;;;;;;;;;;;;;14.59;98.54;99377.56;5076402;28;20384;-71
2023/08/07 05:41:32;;;;;;;;;;;;;;;14.69;97.74;99379.00;5081984;28;19920;-71
2023/08/07 05:43:57;;;;;;;;;;;;;;;14.80;96.88;99377.78;5079690;28;19976;-72
2023/08/07 05:46:22;;;;;;;;;;;;;;;14.85;95.50;99388.72;5079657;28;19963;-72
2023/08/07 05:48:48;;;;;;;;;;;;;;;14.87;94.24;99394.69;5082569;28;19920;-71
2023/08/07 05:51:13;;;;;;;;;;;;;;;14.95;93.18;99389.34;5078626;28;19921;-72
2023/08/07 05:53:38;;;;;;;;;;;;;;;15.00;92.44;99394.97;5081787;28;20010;-71
2023/08/07 05:56:04;;;;;;;;;;;;;;;15.04;92.03;99392.75;5078960;28;20376;-72
2023/08/07 05:58:29;;;;;;;;;;;;;;;15.16;91.40;99392.19;5079319;28;19927;-71
2023/08/07 06:00:54;;;;;;;;;;;;;;;15.22;90.68;99393.31;5080814;28;20407;-72
2023/08/07 06:03:20;;;;;;;;;;;;;;;15.23;88.76;99404.78;5082410;28;19920;-72
2023/08/07 06:05:45;;;;;;;;;;;;;;;15.25;88.72;99402.78;5079920;28;19916;-71
2023/08/07 06:08:10;;;;;;;;;;;;;;;15.42;88.29;99393.69;5082383;28;19965;-72
2023/08/07 06:10:36;;;;;;;;;;;;;;;15.54;88.80;99393.13;5080419;28;20038;-72
2023/08/07 06:13:01;;;;;;;;;;;;;;;15.45;89.62;99393.31;5080153;28;19999;-72
2023/08/07 06:15:27;;;;;;;;;;;;;;;15.57;89.95;99399.91;5081762;28;20362;-72
2023/08/07 06:17:52;;;;;;;;;;;;;;;15.59;91.42;99400.56;5075194;28;19916;-72
2023/08/07 06:20:18;;;;;;;;;;;;;;;15.66;90.40;99401.50;5079780;28;19959;-72
2023/08/07 06:22:43;;;;;;;;;;;;;;;15.73;90.56;99407.75;5081428;28;19999;-71
2023/08/07 06:25:08;;;;;;;;;;;;;;;15.86;89.61;99412.47;5076813;28;19920;-71
2023/08/07 06:27:34;;;;;;;;;;;;;;;15.96;89.43;99407.75;5081949;28;19939;-72
2023/08/07 06:30:00;;;;;;;;;;;;;;;16.07;89.02;99403.81;5079204;28;19920;-72
2023/08/07 06:32:26;;;;;;;;;;;;;;;16.14;87.04;99407.41;5081068;28;19920;-72
2023/08/07 06:34:51;;;;;;;;;;;;;;;16.28;86.22;99411.88;5081491;28;19974;-71
2023/08/07 06:37:16;;;;;;;;;;;;;;;16.42;85.31;99413.75;5074532;28;19925;-72
2023/08/07 06:39:42;;;;;;;;;;;;;;;16.50;82.77;99421.63;5080887;28;20376;-72
2023/08/07 06:42:07;;;;;;;;;;;;;;;16.59;81.05;99419.72;5082147;28;20330;-70
2023/08/07 06:44:34;;;;;;;;;;;;;;;16.69;81.21;99415.78;5078373;28;20372;-72
2023/08/07 06:46:59;;;;;;;;;;;;;;;16.82;81.08;99430.28;5078363;28;19955;-72
2023/08/07 06:49:25;;;;;;;;;;;;;;;16.96;80.82;99424.13;5081495;28;19920;-72
2023/08/07 06:51:50;;;;;;;;;;;;;;;17.13;80.53;99433.56;5079085;28;19916;-72
2023/08/07 06:54:15;;;;;;;;;;;;;;;17.28;80.39;99426.31;5076920;28;19963;-72
2023/08/07 06:56:42;;;;;;;;;;;;;;;17.43;79.67;99423.63;5081437;28;19923;-70
2023/08/07 06:59:07;;;;;;;;;;;;;;;17.50;77.51;99419.97;5083341;28;19928;-71
2023/08/07 07:01:33;;;;;;;;;;;;;;;17.59;77.29;99418.03;5082051;28;19935;-72
2023/08/07 07:03:58;;;;;;;;;;;;;;;17.67;75.43;99419.78;5082741;28;20293;-71
2023/08/07 07:06:25;;;;;;;;;;;;;;;17.74;74.65;99420.63;5086277;28;19923;-72
2023/08/07 07:08:53;;;;;;;;;;;;;;;17.84;74.67;99416.66;5080553;28;19964;-72
2023/08/07 07:11:19;;;;;;;;;;;;;;;17.88;73.86;99423.25;5082568;28;19965;-72
2023/08/07 07:13:44;;;;;;;;;;;;;;;17.89;74.26;99429.41;5081541;28;19928;-73
2023/08/07 07:16:11;;;;;;;;;;;;;;;18.01;75.43;99425.19;5079881;28;20446;-72
2023/08/07 07:18:36;;;;;;;;;;;;;;;18.15;74.20;99434.13;5083339;28;19946;-72
2023/08/07 07:21:02;;;;;;;;;;;;;;;18.22;72.99;99441.16;5086891;28;20302;-72
2023/08/07 07:23:28;;;;;;;;;;;;;;;18.33;71.85;99445.13;5082004;28;19956;-72
2023/08/07 07:25:53;;;;;;;;;;;;;;;18.41;72.03;99435.16;5083242;28;19924;-72
2023/08/07 07:28:18;;;;;;;;;;;;;;;18.54;71.40;99444.25;5084309;28;19927;-72
2023/08/07 07:30:44;;;;;;;;;;;;;;;18.67;70.99;99439.84;5082097;28;19928;-72
2023/08/07 07:33:09;;;;;;;;;;;;;;;18.76;64.81;99448.53;5081377;28;20015;-72
2023/08/07 07:35:38;;;;;;;;;;;;;;;18.86;65.87;99442.81;5081703;28;19924;-73
2023/08/07 07:38:04;;;;;;;;;;;;;;;19.02;64.59;99442.50;5097803;28;20023;-72
2023/08/07 07:40:29;;;;;;;;;;;;;;;19.14;62.37;99443.56;5086357;28;20018;-73
2023/08/07 07:42:54;;;;;;;;;;;;;;;19.24;61.70;99441.31;5081224;28;20389;-72
2023/08/07 07:45:20;;;;;;;;;;;;;;;19.34;57.95;99452.47;5083236;28;19920;-72
2023/08/07 07:47:45;;;;;;;;;;;;;;;19.42;57.99;99457.63;5099606;28;19920;-72
2023/08/07 07:50:12;;;;;;;;;;;;;;;19.51;58.58;99458.28;5081292;28;19926;-72
2023/08/07 07:52:38;;;;;;;;;;;;;;;19.62;58.20;99460.38;5080570;28;19920;-72
2023/08/07 07:55:03;;;;;;;;;;;;;;;19.75;56.71;99463.09;5078162;28;19946;-73
2023/08/07 07:57:28;;;;;;;;;;;;;;;19.87;56.36;99468.66;5081270;28;20089;-73
2023/08/07 07:59:54;;;;;;;;;;;;;;;19.98;54.62;99466.19;5066398;28;19920;-72
2023/08/07 08:02:19;;;;;;;;;;;;;;;20.10;52.11;99466.41;5083850;28;20011;-72
2023/08/07 08:04:44;;;;;;;;;;;;;;;20.23;51.96;99468.25;5080824;28;19928;-72
2023/08/07 08:07:10;;;;;;;;;;;;;;;20.34;51.96;99464.97;5079851;28;19920;-72
2023/08/07 08:09:35;;;;;;;;;;;;;;;20.47;48.06;99469.50;5084378;28;19921;-72
2023/08/07 08:12:00;;;;;;;;;;;;;;;20.56;46.56;99469.06;5078685;28;19951;-72
2023/08/07 08:14:25;;;;;;;;;;;;;;;20.68;46.41;99469.25;5085487;28;19920;-73
2023/08/07 08:16:51;;;;;;;;;;;;;;;20.80;44.36;99465.72;5079140;28;20014;-71
2023/08/07 08:19:16;;;;;;;;;;;;;;;20.93;41.56;99469.38;5079626;28;20275;-71
2023/08/07 08:21:42;;;;;;;;;;;;;;;21.05;35.74;99473.06;5083262;28;19926;-72
2023/08/07 08:24:07;;;;;;;;;;;;;;;21.13;34.91;99475.53;5079147;28;20018;-73
2023/08/07 08:26:33;;;;;;;;;;;;;;;21.19;32.71;99475.53;5081640;28;19931;-73
2023/08/07 08:28:58;;;;;;;;;;;;;;;21.28;33.21;99468.03;5082850;28;19920;-72
2023/08/07 08:31:24;;;;;;;;;;;;;;;21.39;32.83;99479.97;5079882;28;19948;-73
2023/08/07 08:33:49;;;;;;;;;;;;;;;21.45;31.97;99479.94;5079505;28;19920;-72
2023/08/07 08:36:15;;;;;;;;;;;;;;;21.51;32.70;99468.31;5083257;28;20077;-73
2023/08/07 08:38:40;;;;;;;;;;;;;;;21.57;32.36;99474.69;5081056;28;19920;-71
2023/08/07 08:41:07;;;;;;;;;;;;;;;21.63;32.20;99468.47;5081845;28;20288;-72
2023/08/07 08:43:34;;;;;;;;;;;;;;;21.72;30.94;99477.09;5082951;28;19931;-73
2023/08/07 08:46:00;;;;;;;;;;;;;;;21.78;32.15;99485.13;5079109;28;19923;-73
2023/08/07 08:48:28;;;;;;;;;;;;;;;21.83;31.49;99482.59;5083940;28;19926;-72
2023/08/07 08:50:54;;;;;;;;;;;;;;;21.89;32.00;99480.91;5078595;28;19931;-73
2023/08/07 08:53:20;;;;;;;;;;;;;;;21.94;31.71;99483.75;5079859;28;19920;-73
2023/08/07 08:55:47;;;;;;;;;;;;;;;21.99;31.22;99492.03;5079706;28;20330;-72
2023/08/07 08:58:16;;;;;;;;;;;;;;;22.05;29.49;99488.47;5079905;28;20278;-73
2023/08/07 09:00:42;;;;;;;;;;;;;;;22.09;30.60;99480.81;5096101;28;20129;-72
2023/08/07 09:03:07;;;;;;;;;;;;;;;22.12;30.72;99467.75;5081277;28;19995;-73
2023/08/07 09:05:34;;;;;;;;;;;;;;;22.17;31.06;99477.81;5080845;28;19931;-72
2023/08/07 09:08:01;;;;;;;;;;;;;;;22.20;30.76;99472.84;5084656;28;19943;-73
2023/08/07 09:10:26;;;;;;;;;;;;;;;22.27;29.86;99468.22;5079516;28;20019;-73
2023/08/07 09:13:03;;;;;;;;;;;;;;;22.32;29.06;99471.09;5080371;28;20003;-73
2023/08/07 09:15:29;;;;;;;;;;;;;;;22.37;29.06;99465.88;5095009;28;19920;-73
2023/08/07 09:17:55;;;;;;;;;;;;;;;22.40;29.22;99460.03;5079734;28;19926;-73
2023/08/07 09:20:22;;;;;;;;;;;;;;;22.50;28.71;99464.09;5080072;28;19920;-73
2023/08/07 09:22:48;;;;;;;;;;;;;;;22.57;29.63;99457.59;5083376;28;19926;-73
2023/08/07 09:25:14;;;;;;;;;;;;;;;22.60;29.98;99457.16;5079255;28;19957;-72
2023/08/07 09:27:39;;;;;;;;;;;;;;;22.65;30.26;99448.41;5082385;28;19965;-72
2023/08/07 09:30:08;;;;;;;;;;;;;;;22.70;29.99;99446.69;5078301;28;19921;-72
2023/08/07 09:32:33;;;;;;;;;;;;;;;22.75;30.63;99446.06;5080798;28;19963;-72
2023/08/07 09:34:58;;;;;;;;;;;;;;;22.78;30.73;99445.63;5081483;28;20343;-73
2023/08/07 09:37:24;;;;;;;;;;;;;;;22.85;30.39;99449.06;5082419;28;20851;-73
2023/08/07 09:39:50;;;;;;;;;;;;;;;22.92;30.59;99455.16;5079270;28;20288;-72
2023/08/07 09:42:16;;;;;;;;;;;;;;;23.01;29.63;99455.72;5082450;28;20437;-72
2023/08/07 09:44:44;;;;;;;;;;;;;;;23.05;28.86;99455.03;5079423;28;20398;-72
2023/08/07 09:47:14;;;;;;;;;;;;;;;23.07;29.12;99452.94;5081448;28;20053;-72
2023/08/07 09:49:39;;;;;;;;;;;;;;;23.11;29.36;99454.13;5060260;28;20014;-73
2023/08/07 09:52:07;;;;;;;;;;;;;;;23.15;28.67;99452.59;5080339;28;19955;-72
2023/08/07 09:54:32;;;;;;;;;;;;;;;23.16;28.76;99438.09;5078294;28;19921;-73
2023/08/07 09:57:00;;;;;;;;;;;;;;;23.20;28.34;99455.47;5081363;28;19920;-72
2023/08/07 09:59:26;;;;;;;;;;;;;;;23.26;27.55;99456.44;5078256;28;19920;-72
2023/08/07 10:01:52;;;;;;;;;;;;;;;23.30;27.65;99454.09;5081849;28;19927;-72
2023/08/07 10:04:18;;;;;;;;;;;;;;;23.35;28.12;99459.63;5080258;28;19954;-72
2023/08/07 10:06:43;;;;;;;;;;;;;;;23.40;27.66;99454.38;5082098;28;19927;-72
2023/08/07 10:09:09;;;;;;;;;;;;;;;23.46;26.63;99453.44;5078885;28;19921;-73
2023/08/07 10:11:34;;;;;;;;;;;;;;;23.46;26.90;99461.53;5080764;28;19965;-72
2023/08/07 10:14:00;;;;;;;;;;;;;;;23.47;26.99;99455.97;5082180;28;19951;-72
2023/08/07 10:16:27;;;;;;;;;;;;;;;23.48;27.07;99460.28;5081786;28;19985;-73
2023/08/07 10:18:52;;;;;;;;;;;;;;;23.47;26.88;99457.81;5079545;28;19920;-72
2023/08/07 10:21:19;;;;;;;;;;;;;;;23.50;27.14;99462.78;5081247;28;20318;-72
2023/08/07 10:23:44;;;;;;;;;;;;;;;23.53;26.04;99456.91;5078352;28;19921;-72
2023/08/07 10:26:11;;;;;;;;;;;;;;;23.52;25.80;99450.69;5078577;28;19920;-72
2023/08/07 10:28:37;;;;;;;;;;;;;;;23.56;26.00;99451.88;5079037;28;19920;-70
2023/08/07 10:31:04;;;;;;;;;;;;;;;23.64;24.89;99451.56;5083761;28;20027;-73
2023/08/07 10:33:30;;;;;;;;;;;;;;;23.74;25.56;99458.28;5085734;28;19924;-73
2023/08/07 10:35:57;;;;;;;;;;;;;;;23.76;24.88;99461.53;5081768;28;19943;-72
2023/08/07 10:38:23;;;;;;;;;;;;;;;23.77;25.43;99464.03;5084532;28;19946;-72
2023/08/07 10:40:57;;;;;;;;;;;;;;;23.76;25.25;99462.38;5086388;28;20007;-72
2023/08/07 10:43:24;;;;;;;;;;;;;;;23.79;24.67;99456.53;5092246;28;19930;-73
2023/08/07 10:45:49;;;;;;;;;;;;;;;23.85;23.99;99455.63;5084768;28;19928;-73
2023/08/07 10:48:18;;;;;;;;;;;;;;;23.91;24.22;99459.25;5082046;28;19928;-71
2023/08/07 10:50:59;;;;;;;;;;;;;;;23.90;24.90;99457.59;5083774;28;19964;-72
2023/08/07 10:53:35;;;;;;;;;;;;;;;23.97;24.89;99459.16;5083103;28;19963;-72
2023/08/07 10:56:01;;;;;;;;;;;;;;;23.98;24.80;99444.59;5076608;28;19920;-72
2023/08/07 10:58:31;;;;;;;;;;;;;;;24.02;26.11;99450.38;5084078;28;20330;-72
2023/08/07 11:01:29;;;;;;;;;;;;;;;24.09;25.13;99446.50;5084948;28;19981;-72
2023/08/07 11:03:55;;;;;;;;;;;;;;;24.11;24.38;99440.06;5053825;28;19921;-72
2023/08/07 11:06:22;;;;;;;;;;;;;;;24.14;24.48;99436.91;5079401;28;19916;-71
2023/08/07 11:08:47;;;;;;;;;;;;;;;24.15;24.25;99433.16;5084527;28;19924;-72
2023/08/07 11:11:13;;;;;;;;;;;;;;;24.17;24.23;99436.41;5081789;28;19928;-72
2023/08/07 11:13:38;;;;;;;;;;;;;;;24.14;24.04;99431.50;5083572;28;19920;-72
2023/08/07 11:16:04;;;;;;;;;;;;;;;24.14;24.36;99415.34;5083987;28;19920;-72
2023/08/07 11:18:30;;;;;;;;;;;;;;;24.15;24.04;99417.78;5082498;28;19924;-72
2023/08/07 11:20:56;;;;;;;;;;;;;;;24.18;24.01;99416.50;5086320;28;19920;-72
2023/08/07 11:23:25;;;;;;;;;;;;;;;24.25;24.01;99422.63;5062949;28;19927;-72
2023/08/07 11:25:51;;;;;;;;;;;;;;;24.26;24.33;99424.28;5080977;28;19920;-72
2023/08/07 11:28:20;;;;;;;;;;;;;;;24.28;24.53;99416.75;5082473;28;19920;-71
2023/08/07 11:30:55;;;;;;;;;;;;;;;24.31;24.50;99416.31;5081350;28;20372;-71
2023/08/07 11:33:21;;;;;;;;;;;;;;;24.37;24.66;99416.19;5081880;28;19921;-72
2023/08/07 11:35:50;;;;;;;;;;;;;;;24.40;24.95;99420.28;5084574;28;19924;-71
2023/08/07 11:38:33;;;;;;;;;;;;;;;24.45;24.28;99417.69;5080383;28;19928;-72
2023/08/07 11:40:59;;;;;;;;;;;;;;;24.53;24.24;99420.03;5077873;28;20426;-72
2023/08/07 11:43:26;;;;;;;;;;;;;;;24.60;23.89;99428.00;5079970;28;20035;-72
2023/08/07 11:45:52;;;;;;;;;;;;;;;24.66;23.94;99424.38;5081202;28;20365;-71
2023/08/07 11:48:17;;;;;;;;;;;;;;;24.71;23.64;99419.91;5087027;28;19920;-72
2023/08/07 11:50:42;;;;;;;;;;;;;;;24.79;23.84;99418.72;5082342;28;19946;-74
2023/08/07 11:53:08;;;;;;;;;;;;;;;24.83;23.88;99415.28;5081153;28;20056;-72
2023/08/07 11:55:33;;;;;;;;;;;;;;;24.90;23.32;99409.81;5081931;28;20007;-71
2023/08/07 11:57:59;;;;;;;;;;;;;;;24.92;23.44;99413.06;5081834;28;19923;-72
2023/08/07 12:00:26;;;;;;;;;;;;;;;25.00;24.20;99410.00;5082184;28;20398;-72
2023/08/07 12:02:51;;;;;;;;;;;;;;;25.15;23.77;99409.50;5074021;28;19929;-72
2023/08/07 12:05:17;;;;;;;;;;;;;;;25.24;23.53;99405.31;5082378;28;20280;-71
2023/08/07 12:07:42;;;;;;;;;;;;;;;25.40;23.68;99409.94;5085835;28;20314;-72
2023/08/07 12:10:09;;;;;;;;;;;;;;;25.63;23.93;99409.84;5082003;28;20288;-72
2023/08/07 12:12:37;;;;;;;;;;;;;;;25.86;23.27;99408.88;5081734;28;19940;-71
2023/08/07 12:15:09;;;;;;;;;;;;;;;26.06;22.64;99408.41;5083379;28;19978;-72
2023/08/07 12:17:35;;;;;;;;;;;;;;;26.29;23.00;99407.41;5081461;28;20011;-73
2023/08/07 12:20:03;;;;;;;;;;;;;;;26.54;23.38;99404.25;5083085;28;19949;-72
2023/08/07 12:22:28;;;;;;;;;;;;;;;26.73;23.14;99397.50;5079758;28;19924;-71
2023/08/07 12:24:54;;;;;;;;;;;;;;;26.90;22.63;99395.56;5081324;28;19927;-72
2023/08/07 12:27:19;;;;;;;;;;;;;;;27.03;21.80;99403.31;5082407;28;19920;-72
2023/08/07 12:29:45;;;;;;;;;;;;;;;27.14;21.36;99396.94;5081415;28;20439;-72
2023/08/07 12:32:10;;;;;;;;;;;;;;;27.29;21.63;99404.38;5081037;28;19924;-72
2023/08/07 12:34:36;;;;;;;;;;;;;;;27.45;21.47;99394.53;5083113;28;19917;-72
2023/08/07 12:37:01;;;;;;;;;;;;;;;27.55;21.29;99394.66;5081138;28;19927;-72
2023/08/07 12:39:26;;;;;;;;;;;;;;;27.65;20.72;99400.16;5081159;28;20385;-72